Flight Track Log - Related Links

Times and Time Zones

All times are in EDT time to prevent confusion due to time zone crossing. See the CXA882 flight status page for this flight to view local times or setup timezone preferences in your user account.

Time Position Orientation Groundspeed Altitude Reporting Facility
EDT Latitude Longitude Course Direction KTS MPH feet Rate Location/Type
08:44AM 25.0197 121.2030 261° West  Level Estimated
08:45AM 25.0125 121.1533 261° West  Level Estimated
08:46AM 25.0054 121.1035 261° West  Level Estimated
08:47AM 24.9981 121.0537 261° West  Level Estimated
08:48AM 24.9909 121.0039 261° West  Level Estimated
08:48AM 24.4990 121.3166 218° Southwest 369 425 23,700  Level FlightAware ADS-B (KHAO)
08:49AM 24.4183 121.2479 218° Southwest 382 440 25,100 1,407 Climbing FlightAware ADS-B (KHAO)
08:49AM 24.3907 121.2158 232° Southwest 393 452 25,600 1,313 Climbing FlightAware ADS-B (KHAO)
08:49AM 24.3810 121.1998 238° Southwest 395 455 25,800 1,733 Climbing FlightAware ADS-B (KHAO)
08:50AM 24.3504 121.1384 242° Southwest 398 458 26,900 1,606 Climbing FlightAware ADS-B (KHAO)
08:51AM 24.3186 121.0743 242° Southwest 403 464 27,700 985 Climbing FlightAware ADS-B (KHAO)
08:51AM 24.2897 121.0162 242° Southwest 419 482 28,000 277 Climbing FlightAware ADS-B (KHAO)
08:52AM 24.2601 120.9566 242° Southwest 430 495 28,000  Level FlightAware ADS-B (KHAO)
08:52AM 24.2249 120.8858 242° Southwest 434 499 28,000  Level FlightAware ADS-B (KHAO)
08:53AM 24.1911 120.8177 242° Southwest 435 501 28,000  Level FlightAware ADS-B (KHAO)
08:53AM 24.1643 120.7639 242° Southwest 435 501 28,000  Level FlightAware ADS-B (KHAO)
08:56AM 24.1807 120.6569 280° West  Level Estimated
08:57AM 24.1882 120.6075 279° West  Level Estimated
08:58AM 24.1957 120.5581 279° West  Level Estimated
08:59AM 24.2032 120.5087 279° West  Level Estimated
09:00AM 24.2106 120.4593 279° West  Level Estimated
09:01AM 24.2181 120.4099 279° West  Level Estimated
09:02AM 24.2255 120.3605 279° West  Level Estimated
09:03AM 24.2330 120.3111 279° West  Level Estimated
09:04AM 24.2404 120.2616 279° West  Level Estimated
09:05AM 24.2478 120.2122 279° West  Level Estimated
09:06AM 24.2551 120.1627 279° West  Level Estimated
09:07AM 24.2625 120.1133 279° West  Level Estimated
09:08AM 24.2698 120.0638 279° West  Level Estimated
09:09AM 24.2772 120.0144 279° West  Level Estimated
09:10AM 24.2845 119.9649 279° West  Level Estimated
09:11AM 24.2918 119.9155 279° West  Level Estimated
09:12AM 24.2990 119.8660 279° West  Level Estimated
09:13AM 24.3063 119.8165 279° West  Level Estimated
09:14AM 24.3136 119.7670 279° West  Level Estimated
09:15AM 24.3208 119.7175 279° West  Level Estimated
09:16AM 24.3280 119.6680 279° West  Level Estimated
09:17AM 24.3352 119.6185 279° West  Level Estimated
09:18AM 24.3424 119.5690 279° West  Level Estimated
09:19AM 24.3495 119.5195 279° West  Level Estimated
09:20AM 24.3567 119.4700 279° West  Level Estimated
09:21AM 24.3638 119.4204 279° West  Level Estimated
09:22AM 24.3709 119.3709 279° West  Level Estimated
09:23AM 24.3780 119.3214 279° West  Level Estimated
09:24AM 24.3851 119.2718 279° West  Level Estimated
09:25AM 24.3922 119.2223 279° West  Level Estimated
09:26AM 24.3993 119.1727 279° West  Level Estimated
09:27AM 24.4063 119.1232 279° West  Level Estimated
09:28AM 24.4133 119.0736 279° West  Level Estimated
09:29AM 24.4203 119.0240 279° West  Level Estimated
09:30AM 24.4273 118.9744 279° West  Level Estimated
09:31AM 24.4343 118.9249 279° West  Level Estimated
09:32AM 24.4412 118.8753 279° West  Level Estimated
09:33AM 24.4482 118.8257 279° West  Level Estimated
09:34AM 24.4551 118.7761 279° West  Level Estimated
09:35AM 24.4620 118.7265 279° West  Level Estimated
09:36AM 24.4689 118.6769 279° West  Level Estimated
09:37AM 24.4758 118.6273 279° West  Level Estimated
09:38AM 24.4826 118.5776 279° West  Level Estimated
09:39AM 24.4895 118.5280 279° West  Level Estimated
09:40AM 24.4963 118.4784 279° West  Level Estimated
09:41AM 24.5031 118.4287 279° West  Level Estimated
09:42AM 24.5099 118.3791 279° West  Level Estimated
09:43AM 24.5167 118.3295 279° West  Level Estimated
09:44AM 24.5234 118.2798 279° West  Level Estimated
09:45AM 24.5302 118.2301 279° West  Level Estimated
09:46AM 24.5369 118.1805 278° West  Level Estimated
09:47AM 24.5436 118.1308 278° West  Level Estimated
09:48AM 24.5440 118.1277 278° West  Level Estimated
09:49AM 24.5440 118.1277 North  Level Estimated
09:50AM 24.5440 118.1277 North  Level Estimated
09:51AM 24.5440 118.1277 North  Level Estimated
09:52AM 24.5440 118.1277 North  Level Estimated
09:53AM 24.5440 118.1277 North  Level Estimated
09:54AM 24.5440 118.1277 North  Level Estimated
09:55AM 24.5440 118.1277 North  Level Estimated
09:56AM 24.5440 118.1277 North  Level Estimated
09:57AM 24.5440 118.1277 North  Level Estimated
09:58AM 24.5440 118.1277 North  Level Estimated
09:59AM 24.5440 118.1277 North  Level Estimated
10:00AM 24.5440 118.1277 North  Level Estimated
10:01AM 24.5440 118.1277 North  Level Estimated

Login

Don't have an account? Register now (free) for customized features, flight alerts, and more!